Liberty of The Seas — C6VQ8 — position and weather

sailwx.info

Track history (hours):
 
Tides and Currents Weather Stations Pressure Air Temp Water Temp Dewpoint Dewpoint Depression Visibility Wind Speed Wind Dir Waves Ship Positions

Liberty of The Seas

Last reported at 2016-Jun-27 00:33 UTC. Time now 2016-Jun-27 00:37 UTC.
Position N 29°01' W 094°11'.

Type: Passenger vessel. MMSI: 309436000.

Date/timePositionNaut miles runAvg speedWind from/ knotsBaromVisibWave heightAir tempDewpointWater temp
2016-Jun-27 00:33N 29°01' W 094°11'3614.8
2016-Jun-26 22:06N 29°21' W 094°45'3 0.3
2016-Jun-26 11:06N 29°19' W 094°48'2 2.7
2016-Jun-26 10:31N 29°20' W 094°47'3113.0
2016-Jun-26 08:08N 29°04' W 094°16'914.7
2016-Jun-26 07:32N 28°59' W 094°07'2116.8
2016-Jun-26 06:17N 28°48' W 093°47'61919.5
2016-Jun-24 22:33N 20°35' W 086°57'6 5.9
2016-Jun-24 21:32N 20°29' W 086°59'0 0.0
2016-Jun-24 20:32N 20°29' W 086°59'0 0.0
2016-Jun-24 19:32N 20°29' W 086°59'0 0.0
2016-Jun-24 18:32N 20°29' W 086°59'0 0.0
2016-Jun-24 17:32N 20°29' W 086°59'0 0.0
2016-Jun-24 16:29N 20°29' W 086°59'0 0.0
2016-Jun-24 15:32N 20°29' W 086°59'0 0.0
2016-Jun-24 14:32N 20°29' W 086°59'0 0.0
2016-Jun-24 13:32N 20°29' W 086°59'0 0.0
2016-Jun-24 12:32N 20°29' W 086°59'0 0.4
2016-Jun-24 11:33N 20°29' W 086°59'8 8.0
2016-Jun-24 10:33N 20°23' W 087°04'  
2016-Jun-19 22:14N 29°20' W 094°46'2 0.1
2016-Jun-19 10:33N 29°19' W 094°47'1210.3
2016-Jun-19 09:22N 29°16' W 094°33'  
Track history (hours):
 
Tides and Currents Weather Stations Pressure Air Temp Water Temp Dewpoint Dewpoint Depression Visibility Wind Speed Wind Dir Waves Ship Positions

Liberty of The Seas

Last reported at 2016-Jun-27 00:33 UTC. Time now 2016-Jun-27 00:37 UTC.
Position N 29°01' W 094°11'.

Type: Passenger vessel. MMSI: 309436000.

Date/timePositionNaut miles runAvg speedWind from/ knotsBaromVisibWave heightAir tempDewpointWater temp
2016-Jun-27 00:33N 29°01' W 094°11'3614.8
2016-Jun-26 22:06N 29°21' W 094°45'3 0.3
2016-Jun-26 11:06N 29°19' W 094°48'2 2.7
2016-Jun-26 10:31N 29°20' W 094°47'3113.0
2016-Jun-26 08:08N 29°04' W 094°16'914.7
2016-Jun-26 07:32N 28°59' W 094°07'2116.8
2016-Jun-26 06:17N 28°48' W 093°47'61919.5
2016-Jun-24 22:33N 20°35' W 086°57'6 5.9
2016-Jun-24 21:32N 20°29' W 086°59'0 0.0
2016-Jun-24 20:32N 20°29' W 086°59'0 0.0
2016-Jun-24 19:32N 20°29' W 086°59'0 0.0
2016-Jun-24 18:32N 20°29' W 086°59'0 0.0
2016-Jun-24 17:32N 20°29' W 086°59'0 0.0
2016-Jun-24 16:29N 20°29' W 086°59'0 0.0
2016-Jun-24 15:32N 20°29' W 086°59'0 0.0
2016-Jun-24 14:32N 20°29' W 086°59'0 0.0
2016-Jun-24 13:32N 20°29' W 086°59'0 0.0
2016-Jun-24 12:32N 20°29' W 086°59'0 0.4
2016-Jun-24 11:33N 20°29' W 086°59'8 8.0
2016-Jun-24 10:33N 20°23' W 087°04'  
2016-Jun-19 22:14N 29°20' W 094°46'2 0.1
2016-Jun-19 10:33N 29°19' W 094°47'1210.3
2016-Jun-19 09:22N 29°16' W 094°33'  

Dump ship's entire track history